sensor_id;sensor_type;location;lat;lon;timestamp;P1;durP1;ratioP1;P2;durP2;ratioP2
26082;SDS011;13848;49.018;12.078;2022-11-11T00:01:17;16.67;;;7.55;;
26082;SDS011;13848;49.018;12.078;2022-11-11T00:03:43;14.00;;;7.60;;
26082;SDS011;13848;49.018;12.078;2022-11-11T00:06:10;19.05;;;8.48;;
26082;SDS011;13848;49.018;12.078;2022-11-11T00:08:37;10.73;;;7.43;;
26082;SDS011;13848;49.018;12.078;2022-11-11T00:11:06;29.33;;;7.68;;
26082;SDS011;13848;49.018;12.078;2022-11-11T00:13:33;22.50;;;8.30;;
26082;SDS011;13848;49.018;12.078;2022-11-11T00:16:03;12.63;;;7.90;;
26082;SDS011;13848;49.018;12.078;2022-11-11T00:18:30;35.10;;;7.75;;
26082;SDS011;13848;49.018;12.078;2022-11-11T00:20:56;23.15;;;7.22;;
26082;SDS011;13848;49.018;12.078;2022-11-11T00:23:23;26.15;;;7.75;;
26082;SDS011;13848;49.018;12.078;2022-11-11T00:25:50;16.77;;;7.65;;
26082;SDS011;13848;49.018;12.078;2022-11-11T00:28:18;17.25;;;7.70;;
26082;SDS011;13848;49.018;12.078;2022-11-11T00:30:44;14.00;;;7.63;;
26082;SDS011;13848;49.018;12.078;2022-11-11T00:33:10;40.65;;;7.90;;
26082;SDS011;13848;49.018;12.078;2022-11-11T00:35:36;17.48;;;7.28;;
26082;SDS011;13848;49.018;12.078;2022-11-11T00:38:06;13.50;;;6.95;;
26082;SDS011;13848;49.018;12.078;2022-11-11T00:40:34;15.60;;;7.75;;
26082;SDS011;13848;49.018;12.078;2022-11-11T00:43:00;12.32;;;6.65;;
26082;SDS011;13848;49.018;12.078;2022-11-11T00:45:28;20.65;;;6.70;;
26082;SDS011;13848;49.018;12.078;2022-11-11T00:47:55;74.40;;;10.07;;
26082;SDS011;13848;49.018;12.078;2022-11-11T00:50:21;29.45;;;6.88;;
26082;SDS011;13848;49.018;12.078;2022-11-11T00:52:49;17.15;;;6.82;;
26082;SDS011;13848;49.018;12.078;2022-11-11T00:55:15;24.48;;;7.45;;
26082;SDS011;13848;49.018;12.078;2022-11-11T00:57:41;24.73;;;6.47;;
26082;SDS011;13848;49.018;12.078;2022-11-11T01:00:07;23.38;;;7.63;;
26082;SDS011;13848;49.018;12.078;2022-11-11T01:02:35;26.95;;;7.53;;
26082;SDS011;13848;49.018;12.078;2022-11-11T01:05:01;15.05;;;6.65;;
26082;SDS011;13848;49.018;12.078;2022-11-11T01:07:27;31.00;;;6.75;;
26082;SDS011;13848;49.018;12.078;2022-11-11T01:09:53;12.82;;;6.90;;
26082;SDS011;13848;49.018;12.078;2022-11-11T01:12:19;13.43;;;6.90;;
26082;SDS011;13848;49.018;12.078;2022-11-11T01:14:45;18.48;;;6.60;;
26082;SDS011;13848;49.018;12.078;2022-11-11T01:17:11;12.55;;;6.90;;
26082;SDS011;13848;49.018;12.078;2022-11-11T01:19:38;10.30;;;7.10;;
26082;SDS011;13848;49.018;12.078;2022-11-11T01:22:04;18.23;;;7.00;;
26082;SDS011;13848;49.018;12.078;2022-11-11T01:24:30;18.17;;;7.60;;
26082;SDS011;13848;49.018;12.078;2022-11-11T01:26:57;20.20;;;7.22;;
26082;SDS011;13848;49.018;12.078;2022-11-11T01:29:23;34.60;;;8.32;;
26082;SDS011;13848;49.018;12.078;2022-11-11T01:31:49;15.73;;;7.40;;
26082;SDS011;13848;49.018;12.078;2022-11-11T01:34:14;30.52;;;7.72;;
26082;SDS011;13848;49.018;12.078;2022-11-11T01:36:42;10.35;;;7.10;;
26082;SDS011;13848;49.018;12.078;2022-11-11T01:39:08;15.77;;;6.93;;
26082;SDS011;13848;49.018;12.078;2022-11-11T01:41:34;15.88;;;8.13;;
26082;SDS011;13848;49.018;12.078;2022-11-11T01:44:01;13.32;;;7.85;;
26082;SDS011;13848;49.018;12.078;2022-11-11T01:46:40;19.13;;;7.93;;
26082;SDS011;13848;49.018;12.078;2022-11-11T01:49:15;11.73;;;7.63;;
26082;SDS011;13848;49.018;12.078;2022-11-11T01:51:51;22.63;;;7.43;;
26082;SDS011;13848;49.018;12.078;2022-11-11T01:54:21;25.10;;;6.95;;
26082;SDS011;13848;49.018;12.078;2022-11-11T01:56:53;11.98;;;7.57;;
26082;SDS011;13848;49.018;12.078;2022-11-11T01:59:23;23.85;;;7.70;;
26082;SDS011;13848;49.018;12.078;2022-11-11T02:01:51;15.25;;;8.45;;
26082;SDS011;13848;49.018;12.078;2022-11-11T02:04:16;28.20;;;8.85;;
26082;SDS011;13848;49.018;12.078;2022-11-11T02:06:44;38.53;;;8.98;;
26082;SDS011;13848;49.018;12.078;2022-11-11T02:09:12;22.38;;;9.25;;
26082;SDS011;13848;49.018;12.078;2022-11-11T02:11:39;20.00;;;8.75;;
26082;SDS011;13848;49.018;12.078;2022-11-11T02:14:07;19.52;;;8.98;;
26082;SDS011;13848;49.018;12.078;2022-11-11T02:16:33;37.03;;;9.07;;
26082;SDS011;13848;49.018;12.078;2022-11-11T02:18:59;19.88;;;9.63;;
26082;SDS011;13848;49.018;12.078;2022-11-11T02:21:27;27.75;;;9.40;;
26082;SDS011;13848;49.018;12.078;2022-11-11T02:24:01;14.88;;;9.05;;
26082;SDS011;13848;49.018;12.078;2022-11-11T02:26:29;32.35;;;10.52;;
26082;SDS011;13848;49.018;12.078;2022-11-11T02:28:58;33.47;;;9.30;;
26082;SDS011;13848;49.018;12.078;2022-11-11T02:31:26;32.83;;;9.95;;
26082;SDS011;13848;49.018;12.078;2022-11-11T02:33:53;63.58;;;10.68;;
26082;SDS011;13848;49.018;12.078;2022-11-11T02:36:19;18.33;;;10.25;;
26082;SDS011;13848;49.018;12.078;2022-11-11T02:38:46;24.60;;;9.30;;
26082;SDS011;13848;49.018;12.078;2022-11-11T02:41:14;24.42;;;10.18;;
26082;SDS011;13848;49.018;12.078;2022-11-11T02:43:40;24.52;;;9.60;;
26082;SDS011;13848;49.018;12.078;2022-11-11T02:46:06;25.45;;;10.90;;
26082;SDS011;13848;49.018;12.078;2022-11-11T02:48:33;32.65;;;10.80;;
26082;SDS011;13848;49.018;12.078;2022-11-11T02:50:59;23.95;;;10.13;;
26082;SDS011;13848;49.018;12.078;2022-11-11T02:53:25;31.60;;;10.93;;
26082;SDS011;13848;49.018;12.078;2022-11-11T02:55:51;23.05;;;11.60;;
26082;SDS011;13848;49.018;12.078;2022-11-11T02:58:19;25.92;;;9.82;;
26082;SDS011;13848;49.018;12.078;2022-11-11T03:00:45;25.10;;;10.07;;
26082;SDS011;13848;49.018;12.078;2022-11-11T03:03:11;34.33;;;10.25;;
26082;SDS011;13848;49.018;12.078;2022-11-11T03:05:36;32.55;;;11.50;;
26082;SDS011;13848;49.018;12.078;2022-11-11T03:08:02;17.15;;;9.77;;
26082;SDS011;13848;49.018;12.078;2022-11-11T03:10:29;20.83;;;11.15;;
26082;SDS011;13848;49.018;12.078;2022-11-11T03:12:55;24.63;;;11.52;;
26082;SDS011;13848;49.018;12.078;2022-11-11T03:15:22;53.72;;;11.48;;
26082;SDS011;13848;49.018;12.078;2022-11-11T03:17:48;59.00;;;11.45;;
26082;SDS011;13848;49.018;12.078;2022-11-11T03:20:14;25.85;;;11.02;;
26082;SDS011;13848;49.018;12.078;2022-11-11T03:22:41;23.90;;;11.30;;
26082;SDS011;13848;49.018;12.078;2022-11-11T03:25:07;30.75;;;11.57;;
26082;SDS011;13848;49.018;12.078;2022-11-11T03:27:34;23.95;;;11.32;;
26082;SDS011;13848;49.018;12.078;2022-11-11T03:29:59;33.80;;;10.85;;
26082;SDS011;13848;49.018;12.078;2022-11-11T03:32:27;31.33;;;10.70;;
26082;SDS011;13848;49.018;12.078;2022-11-11T03:34:53;46.80;;;11.55;;
26082;SDS011;13848;49.018;12.078;2022-11-11T03:37:19;35.03;;;13.23;;
26082;SDS011;13848;49.018;12.078;2022-11-11T03:39:44;18.92;;;10.50;;
26082;SDS011;13848;49.018;12.078;2022-11-11T03:42:10;24.83;;;10.88;;
26082;SDS011;13848;49.018;12.078;2022-11-11T03:44:36;23.90;;;10.63;;
26082;SDS011;13848;49.018;12.078;2022-11-11T03:47:02;55.47;;;11.30;;
26082;SDS011;13848;49.018;12.078;2022-11-11T03:49:30;19.45;;;10.95;;
26082;SDS011;13848;49.018;12.078;2022-11-11T03:51:55;27.98;;;11.13;;
26082;SDS011;13848;49.018;12.078;2022-11-11T03:54:23;27.80;;;10.80;;
26082;SDS011;13848;49.018;12.078;2022-11-11T03:56:48;19.77;;;10.75;;
26082;SDS011;13848;49.018;12.078;2022-11-11T03:59:14;25.77;;;10.43;;
26082;SDS011;13848;49.018;12.078;2022-11-11T04:01:40;24.48;;;11.13;;
26082;SDS011;13848;49.018;12.078;2022-11-11T04:04:06;23.58;;;11.27;;
26082;SDS011;13848;49.018;12.078;2022-11-11T04:06:34;18.38;;;11.20;;
26082;SDS011;13848;49.018;12.078;2022-11-11T04:09:00;27.38;;;11.25;;
26082;SDS011;13848;49.018;12.078;2022-11-11T04:11:26;29.25;;;10.10;;
26082;SDS011;13848;49.018;12.078;2022-11-11T04:13:55;32.03;;;10.95;;
26082;SDS011;13848;49.018;12.078;2022-11-11T04:16:24;35.15;;;11.65;;
26082;SDS011;13848;49.018;12.078;2022-11-11T04:18:50;17.88;;;10.50;;
26082;SDS011;13848;49.018;12.078;2022-11-11T04:21:16;23.05;;;10.85;;
26082;SDS011;13848;49.018;12.078;2022-11-11T04:23:43;51.25;;;12.77;;
26082;SDS011;13848;49.018;12.078;2022-11-11T04:26:09;32.20;;;10.75;;
26082;SDS011;13848;49.018;12.078;2022-11-11T04:28:36;34.92;;;10.50;;
26082;SDS011;13848;49.018;12.078;2022-11-11T04:31:01;36.05;;;10.48;;
26082;SDS011;13848;49.018;12.078;2022-11-11T04:33:27;39.80;;;11.43;;
26082;SDS011;13848;49.018;12.078;2022-11-11T04:35:53;55.47;;;10.82;;
26082;SDS011;13848;49.018;12.078;2022-11-11T04:38:19;51.03;;;10.18;;
26082;SDS011;13848;49.018;12.078;2022-11-11T04:40:47;32.78;;;9.98;;
26082;SDS011;13848;49.018;12.078;2022-11-11T04:43:13;20.15;;;9.07;;
26082;SDS011;13848;49.018;12.078;2022-11-11T04:45:39;24.80;;;9.82;;
26082;SDS011;13848;49.018;12.078;2022-11-11T04:48:05;20.00;;;8.73;;
26082;SDS011;13848;49.018;12.078;2022-11-11T04:50:33;17.98;;;8.77;;
26082;SDS011;13848;49.018;12.078;2022-11-11T04:53:00;24.85;;;9.38;;
26082;SDS011;13848;49.018;12.078;2022-11-11T04:55:27;15.43;;;8.45;;
26082;SDS011;13848;49.018;12.078;2022-11-11T04:57:55;27.40;;;8.73;;
26082;SDS011;13848;49.018;12.078;2022-11-11T05:00:21;29.35;;;8.90;;
26082;SDS011;13848;49.018;12.078;2022-11-11T05:02:47;39.13;;;9.18;;
26082;SDS011;13848;49.018;12.078;2022-11-11T05:05:13;11.57;;;8.07;;
26082;SDS011;13848;49.018;12.078;2022-11-11T05:07:39;11.93;;;7.78;;
26082;SDS011;13848;49.018;12.078;2022-11-11T05:10:05;18.80;;;7.53;;
26082;SDS011;13848;49.018;12.078;2022-11-11T05:12:32;18.15;;;7.85;;
26082;SDS011;13848;49.018;12.078;2022-11-11T05:14:59;19.27;;;8.85;;
26082;SDS011;13848;49.018;12.078;2022-11-11T05:17:25;12.73;;;7.47;;
26082;SDS011;13848;49.018;12.078;2022-11-11T05:19:51;13.50;;;7.85;;
26082;SDS011;13848;49.018;12.078;2022-11-11T05:22:18;17.65;;;7.85;;
26082;SDS011;13848;49.018;12.078;2022-11-11T05:24:47;14.95;;;7.82;;
26082;SDS011;13848;49.018;12.078;2022-11-11T05:27:14;11.80;;;7.75;;
26082;SDS011;13848;49.018;12.078;2022-11-11T05:29:40;13.70;;;7.93;;
26082;SDS011;13848;49.018;12.078;2022-11-11T05:32:07;13.57;;;8.07;;
26082;SDS011;13848;49.018;12.078;2022-11-11T05:34:33;33.63;;;8.40;;
26082;SDS011;13848;49.018;12.078;2022-11-11T05:36:59;13.32;;;8.55;;
26082;SDS011;13848;49.018;12.078;2022-11-11T05:39:25;23.67;;;8.45;;
26082;SDS011;13848;49.018;12.078;2022-11-11T05:41:51;14.43;;;8.60;;
26082;SDS011;13848;49.018;12.078;2022-11-11T05:44:17;26.35;;;8.57;;
26082;SDS011;13848;49.018;12.078;2022-11-11T05:46:43;25.20;;;10.43;;
26082;SDS011;13848;49.018;12.078;2022-11-11T05:49:10;33.05;;;9.00;;
26082;SDS011;13848;49.018;12.078;2022-11-11T05:51:36;18.42;;;9.43;;
26082;SDS011;13848;49.018;12.078;2022-11-11T05:54:02;20.70;;;9.75;;
26082;SDS011;13848;49.018;12.078;2022-11-11T05:56:28;15.90;;;9.80;;
26082;SDS011;13848;49.018;12.078;2022-11-11T05:58:54;20.55;;;9.55;;
26082;SDS011;13848;49.018;12.078;2022-11-11T06:01:20;16.55;;;9.25;;
26082;SDS011;13848;49.018;12.078;2022-11-11T06:03:46;33.53;;;8.98;;
26082;SDS011;13848;49.018;12.078;2022-11-11T06:06:13;27.63;;;10.07;;
26082;SDS011;13848;49.018;12.078;2022-11-11T06:08:39;26.52;;;9.93;;
26082;SDS011;13848;49.018;12.078;2022-11-11T06:11:05;15.70;;;9.40;;
26082;SDS011;13848;49.018;12.078;2022-11-11T06:13:31;25.33;;;10.23;;
26082;SDS011;13848;49.018;12.078;2022-11-11T06:15:57;13.90;;;9.07;;
26082;SDS011;13848;49.018;12.078;2022-11-11T06:18:24;16.17;;;9.27;;
26082;SDS011;13848;49.018;12.078;2022-11-11T06:20:51;30.88;;;9.93;;
26082;SDS011;13848;49.018;12.078;2022-11-11T06:23:19;40.20;;;9.70;;
26082;SDS011;13848;49.018;12.078;2022-11-11T06:25:45;36.90;;;10.68;;
26082;SDS011;13848;49.018;12.078;2022-11-11T06:28:12;17.80;;;9.50;;
26082;SDS011;13848;49.018;12.078;2022-11-11T06:30:38;62.30;;;10.60;;
26082;SDS011;13848;49.018;12.078;2022-11-11T06:33:05;18.00;;;10.05;;
26082;SDS011;13848;49.018;12.078;2022-11-11T06:35:32;17.63;;;9.80;;
26082;SDS011;13848;49.018;12.078;2022-11-11T06:37:58;17.35;;;9.93;;
26082;SDS011;13848;49.018;12.078;2022-11-11T06:40:25;19.13;;;10.30;;
26082;SDS011;13848;49.018;12.078;2022-11-11T06:42:51;20.38;;;9.80;;
26082;SDS011;13848;49.018;12.078;2022-11-11T06:45:17;19.40;;;9.52;;
26082;SDS011;13848;49.018;12.078;2022-11-11T06:47:43;23.73;;;9.80;;
26082;SDS011;13848;49.018;12.078;2022-11-11T06:50:09;36.08;;;10.98;;
26082;SDS011;13848;49.018;12.078;2022-11-11T06:52:35;24.95;;;10.27;;
26082;SDS011;13848;49.018;12.078;2022-11-11T06:55:01;22.70;;;11.40;;
26082;SDS011;13848;49.018;12.078;2022-11-11T06:57:28;24.23;;;11.10;;
26082;SDS011;13848;49.018;12.078;2022-11-11T06:59:54;19.85;;;9.65;;
26082;SDS011;13848;49.018;12.078;2022-11-11T07:02:20;18.33;;;10.30;;
26082;SDS011;13848;49.018;12.078;2022-11-11T07:04:46;28.98;;;10.70;;
26082;SDS011;13848;49.018;12.078;2022-11-11T07:07:12;23.27;;;10.52;;
26082;SDS011;13848;49.018;12.078;2022-11-11T07:09:38;25.05;;;9.82;;
26082;SDS011;13848;49.018;12.078;2022-11-11T07:12:04;20.30;;;10.85;;
26082;SDS011;13848;49.018;12.078;2022-11-11T07:14:31;22.08;;;10.38;;
26082;SDS011;13848;49.018;12.078;2022-11-11T07:16:57;20.27;;;10.57;;
26082;SDS011;13848;49.018;12.078;2022-11-11T07:19:24;34.25;;;10.40;;
26082;SDS011;13848;49.018;12.078;2022-11-11T07:21:50;20.00;;;10.75;;
26082;SDS011;13848;49.018;12.078;2022-11-11T07:24:16;21.88;;;10.70;;
26082;SDS011;13848;49.018;12.078;2022-11-11T07:26:42;25.67;;;10.63;;
26082;SDS011;13848;49.018;12.078;2022-11-11T07:29:07;23.30;;;11.38;;
26082;SDS011;13848;49.018;12.078;2022-11-11T07:31:35;22.55;;;11.27;;
26082;SDS011;13848;49.018;12.078;2022-11-11T07:34:01;27.42;;;11.27;;
26082;SDS011;13848;49.018;12.078;2022-11-11T07:36:27;22.92;;;11.38;;
26082;SDS011;13848;49.018;12.078;2022-11-11T07:38:53;21.63;;;10.73;;
26082;SDS011;13848;49.018;12.078;2022-11-11T07:41:19;22.13;;;10.35;;
26082;SDS011;13848;49.018;12.078;2022-11-11T07:43:45;25.20;;;9.55;;
26082;SDS011;13848;49.018;12.078;2022-11-11T07:46:11;29.60;;;10.95;;
26082;SDS011;13848;49.018;12.078;2022-11-11T07:48:38;18.08;;;9.75;;
26082;SDS011;13848;49.018;12.078;2022-11-11T07:51:04;21.08;;;10.00;;
26082;SDS011;13848;49.018;12.078;2022-11-11T07:53:31;16.13;;;9.30;;
26082;SDS011;13848;49.018;12.078;2022-11-11T07:55:56;15.43;;;10.25;;
26082;SDS011;13848;49.018;12.078;2022-11-11T07:58:22;16.17;;;9.43;;
26082;SDS011;13848;49.018;12.078;2022-11-11T08:00:48;20.38;;;9.40;;
26082;SDS011;13848;49.018;12.078;2022-11-11T08:03:17;13.52;;;8.88;;
26082;SDS011;13848;49.018;12.078;2022-11-11T08:05:44;22.17;;;9.75;;
26082;SDS011;13848;49.018;12.078;2022-11-11T08:08:10;19.58;;;9.60;;
26082;SDS011;13848;49.018;12.078;2022-11-11T08:10:36;21.48;;;10.13;;
26082;SDS011;13848;49.018;12.078;2022-11-11T08:13:02;16.13;;;9.85;;
26082;SDS011;13848;49.018;12.078;2022-11-11T08:15:28;19.92;;;9.93;;
26082;SDS011;13848;49.018;12.078;2022-11-11T08:17:54;18.90;;;8.75;;
26082;SDS011;13848;49.018;12.078;2022-11-11T08:20:20;17.20;;;8.30;;
26082;SDS011;13848;49.018;12.078;2022-11-11T08:22:48;16.52;;;9.60;;
26082;SDS011;13848;49.018;12.078;2022-11-11T08:25:14;12.65;;;8.00;;
26082;SDS011;13848;49.018;12.078;2022-11-11T08:27:40;23.23;;;8.85;;
26082;SDS011;13848;49.018;12.078;2022-11-11T08:30:07;15.63;;;8.63;;
26082;SDS011;13848;49.018;12.078;2022-11-11T08:32:34;19.05;;;8.43;;
26082;SDS011;13848;49.018;12.078;2022-11-11T08:35:00;13.82;;;8.57;;
26082;SDS011;13848;49.018;12.078;2022-11-11T08:37:26;17.42;;;8.45;;
26082;SDS011;13848;49.018;12.078;2022-11-11T08:39:54;14.93;;;8.38;;
26082;SDS011;13848;49.018;12.078;2022-11-11T08:42:20;14.30;;;8.35;;
26082;SDS011;13848;49.018;12.078;2022-11-11T08:44:47;22.95;;;8.98;;
26082;SDS011;13848;49.018;12.078;2022-11-11T08:47:13;13.70;;;8.02;;
26082;SDS011;13848;49.018;12.078;2022-11-11T08:49:39;18.20;;;8.27;;
26082;SDS011;13848;49.018;12.078;2022-11-11T08:52:05;14.75;;;8.52;;
26082;SDS011;13848;49.018;12.078;2022-11-11T08:54:31;22.52;;;8.05;;
26082;SDS011;13848;49.018;12.078;2022-11-11T08:56:59;14.10;;;7.63;;
26082;SDS011;13848;49.018;12.078;2022-11-11T08:59:25;11.93;;;7.57;;
26082;SDS011;13848;49.018;12.078;2022-11-11T09:01:51;14.93;;;8.18;;
26082;SDS011;13848;49.018;12.078;2022-11-11T09:04:17;12.23;;;8.27;;
26082;SDS011;13848;49.018;12.078;2022-11-11T09:06:43;14.38;;;8.38;;
26082;SDS011;13848;49.018;12.078;2022-11-11T09:09:09;13.32;;;8.43;;
26082;SDS011;13848;49.018;12.078;2022-11-11T09:11:35;12.52;;;7.82;;
26082;SDS011;13848;49.018;12.078;2022-11-11T09:14:02;14.10;;;8.10;;
26082;SDS011;13848;49.018;12.078;2022-11-11T09:16:28;16.50;;;8.73;;
26082;SDS011;13848;49.018;12.078;2022-11-11T09:18:54;12.45;;;7.60;;
26082;SDS011;13848;49.018;12.078;2022-11-11T09:21:20;19.50;;;8.45;;
26082;SDS011;13848;49.018;12.078;2022-11-11T09:23:46;13.60;;;8.13;;
26082;SDS011;13848;49.018;12.078;2022-11-11T09:26:12;14.93;;;8.63;;
26082;SDS011;13848;49.018;12.078;2022-11-11T09:28:38;14.30;;;8.90;;
26082;SDS011;13848;49.018;12.078;2022-11-11T09:31:05;18.02;;;8.45;;
26082;SDS011;13848;49.018;12.078;2022-11-11T09:33:31;17.58;;;8.50;;
26082;SDS011;13848;49.018;12.078;2022-11-11T09:35:57;13.70;;;8.23;;
26082;SDS011;13848;49.018;12.078;2022-11-11T09:38:24;14.63;;;8.73;;
26082;SDS011;13848;49.018;12.078;2022-11-11T09:40:59;14.70;;;8.55;;
26082;SDS011;13848;49.018;12.078;2022-11-11T09:43:35;14.90;;;8.95;;
26082;SDS011;13848;49.018;12.078;2022-11-11T09:46:18;13.73;;;8.88;;
26082;SDS011;13848;49.018;12.078;2022-11-11T09:48:57;13.57;;;8.63;;
26082;SDS011;13848;49.018;12.078;2022-11-11T09:51:36;14.13;;;8.50;;
26082;SDS011;13848;49.018;12.078;2022-11-11T09:54:11;16.67;;;8.63;;
26082;SDS011;13848;49.018;12.078;2022-11-11T09:56:42;15.25;;;8.35;;
26082;SDS011;13848;49.018;12.078;2022-11-11T09:59:10;13.98;;;8.68;;
26082;SDS011;13848;49.018;12.078;2022-11-11T10:01:44;15.48;;;7.55;;
26082;SDS011;13848;49.018;12.078;2022-11-11T10:04:16;13.32;;;8.30;;
26082;SDS011;13848;49.018;12.078;2022-11-11T10:06:50;14.77;;;8.88;;
26082;SDS011;13848;49.018;12.078;2022-11-11T10:09:23;10.70;;;7.50;;
26082;SDS011;13848;49.018;12.078;2022-11-11T10:16:58;13.05;;;7.07;;
26082;SDS011;13848;49.018;12.078;2022-11-11T10:19:32;10.20;;;6.75;;
26082;SDS011;13848;49.018;12.078;2022-11-11T10:22:02;9.20;;;6.57;;
26082;SDS011;13848;49.018;12.078;2022-11-11T10:24:37;9.70;;;6.75;;
26082;SDS011;13848;49.018;12.078;2022-11-11T10:27:06;9.32;;;6.25;;
26082;SDS011;13848;49.018;12.078;2022-11-11T10:29:40;14.60;;;7.43;;
26082;SDS011;13848;49.018;12.078;2022-11-11T10:32:10;10.38;;;7.00;;
26082;SDS011;13848;49.018;12.078;2022-11-11T10:34:42;12.57;;;6.80;;
26082;SDS011;13848;49.018;12.078;2022-11-11T10:37:14;10.77;;;7.25;;
26082;SDS011;13848;49.018;12.078;2022-11-11T10:39:45;9.02;;;6.75;;
26082;SDS011;13848;49.018;12.078;2022-11-11T10:42:23;8.20;;;5.80;;
26082;SDS011;13848;49.018;12.078;2022-11-11T10:44:49;10.60;;;6.57;;
26082;SDS011;13848;49.018;12.078;2022-11-11T10:47:23;9.82;;;6.90;;
26082;SDS011;13848;49.018;12.078;2022-11-11T10:50:00;15.07;;;8.25;;
26082;SDS011;13848;49.018;12.078;2022-11-11T10:52:32;16.80;;;9.80;;
26082;SDS011;13848;49.018;12.078;2022-11-11T10:55:03;11.98;;;7.80;;
26082;SDS011;13848;49.018;12.078;2022-11-11T10:57:34;13.77;;;8.05;;
26082;SDS011;13848;49.018;12.078;2022-11-11T11:00:04;13.20;;;8.23;;
26082;SDS011;13848;49.018;12.078;2022-11-11T11:02:36;11.90;;;7.88;;
26082;SDS011;13848;49.018;12.078;2022-11-11T11:05:08;13.40;;;8.63;;
26082;SDS011;13848;49.018;12.078;2022-11-11T11:07:39;13.82;;;8.02;;
26082;SDS011;13848;49.018;12.078;2022-11-11T11:10:11;12.75;;;7.90;;
26082;SDS011;13848;49.018;12.078;2022-11-11T11:12:40;10.38;;;7.50;;
26082;SDS011;13848;49.018;12.078;2022-11-11T11:15:12;12.45;;;7.60;;
26082;SDS011;13848;49.018;12.078;2022-11-11T11:17:47;12.95;;;8.73;;
26082;SDS011;13848;49.018;12.078;2022-11-11T11:20:19;13.18;;;7.85;;
26082;SDS011;13848;49.018;12.078;2022-11-11T11:22:47;13.27;;;8.82;;
26082;SDS011;13848;49.018;12.078;2022-11-11T11:25:16;14.73;;;8.75;;
26082;SDS011;13848;49.018;12.078;2022-11-11T11:27:43;15.55;;;8.45;;
26082;SDS011;13848;49.018;12.078;2022-11-11T11:30:10;12.95;;;8.15;;
26082;SDS011;13848;49.018;12.078;2022-11-11T11:32:37;12.77;;;8.80;;
26082;SDS011;13848;49.018;12.078;2022-11-11T11:35:05;14.90;;;9.48;;
26082;SDS011;13848;49.018;12.078;2022-11-11T11:37:31;15.95;;;9.25;;
26082;SDS011;13848;49.018;12.078;2022-11-11T11:39:58;14.02;;;9.15;;
26082;SDS011;13848;49.018;12.078;2022-11-11T11:42:26;14.73;;;8.90;;
26082;SDS011;13848;49.018;12.078;2022-11-11T11:44:53;16.60;;;9.75;;
26082;SDS011;13848;49.018;12.078;2022-11-11T11:47:22;15.35;;;9.57;;
26082;SDS011;13848;49.018;12.078;2022-11-11T11:50:04;14.23;;;8.55;;
26082;SDS011;13848;49.018;12.078;2022-11-11T11:52:42;17.45;;;9.88;;
26082;SDS011;13848;49.018;12.078;2022-11-11T11:55:17;12.15;;;8.38;;
26082;SDS011;13848;49.018;12.078;2022-11-11T11:57:51;15.57;;;8.90;;
26082;SDS011;13848;49.018;12.078;2022-11-11T12:00:25;15.75;;;9.50;;
26082;SDS011;13848;49.018;12.078;2022-11-11T12:03:00;15.32;;;9.27;;
26082;SDS011;13848;49.018;12.078;2022-11-11T12:05:42;14.63;;;8.68;;
26082;SDS011;13848;49.018;12.078;2022-11-11T12:08:17;14.00;;;9.20;;
26082;SDS011;13848;49.018;12.078;2022-11-11T12:10:53;13.38;;;9.32;;
26082;SDS011;13848;49.018;12.078;2022-11-11T12:13:27;13.63;;;8.95;;
26082;SDS011;13848;49.018;12.078;2022-11-11T12:16:03;14.50;;;8.90;;
26082;SDS011;13848;49.018;12.078;2022-11-11T12:18:44;15.05;;;9.18;;
26082;SDS011;13848;49.018;12.078;2022-11-11T12:21:31;15.07;;;9.15;;
26082;SDS011;13848;49.018;12.078;2022-11-11T12:24:05;17.10;;;10.02;;
26082;SDS011;13848;49.018;12.078;2022-11-11T12:26:39;15.93;;;9.05;;
26082;SDS011;13848;49.018;12.078;2022-11-11T12:29:18;15.50;;;9.30;;
26082;SDS011;13848;49.018;12.078;2022-11-11T12:31:59;14.90;;;9.25;;
26082;SDS011;13848;49.018;12.078;2022-11-11T12:34:59;16.27;;;9.90;;
26082;SDS011;13848;49.018;12.078;2022-11-11T12:37:41;14.85;;;9.57;;
26082;SDS011;13848;49.018;12.078;2022-11-11T12:40:14;14.50;;;9.85;;
26082;SDS011;13848;49.018;12.078;2022-11-11T12:42:54;15.90;;;10.35;;
26082;SDS011;13848;49.018;12.078;2022-11-11T12:45:29;18.30;;;10.20;;
26082;SDS011;13848;49.018;12.078;2022-11-11T12:48:04;15.82;;;9.95;;
26082;SDS011;13848;49.018;12.078;2022-11-11T12:50:46;18.92;;;10.07;;
26082;SDS011;13848;49.018;12.078;2022-11-11T12:53:22;16.92;;;10.40;;
26082;SDS011;13848;49.018;12.078;2022-11-11T12:55:59;18.17;;;9.82;;
26082;SDS011;13848;49.018;12.078;2022-11-11T12:58:34;17.35;;;9.88;;
26082;SDS011;13848;49.018;12.078;2022-11-11T13:01:09;19.17;;;10.75;;
26082;SDS011;13848;49.018;12.078;2022-11-11T13:03:48;16.52;;;9.85;;
26082;SDS011;13848;49.018;12.078;2022-11-11T13:06:30;17.95;;;10.63;;
26082;SDS011;13848;49.018;12.078;2022-11-11T13:09:31;15.18;;;9.60;;
26082;SDS011;13848;49.018;12.078;2022-11-11T13:12:06;16.80;;;10.55;;
26082;SDS011;13848;49.018;12.078;2022-11-11T13:17:16;22.13;;;10.10;;
26082;SDS011;13848;49.018;12.078;2022-11-11T13:19:43;18.73;;;10.70;;
26082;SDS011;13848;49.018;12.078;2022-11-11T13:22:13;18.83;;;10.50;;
26082;SDS011;13848;49.018;12.078;2022-11-11T13:24:46;16.10;;;10.52;;
26082;SDS011;13848;49.018;12.078;2022-11-11T13:27:13;20.45;;;10.98;;
26082;SDS011;13848;49.018;12.078;2022-11-11T13:29:55;19.58;;;10.98;;
26082;SDS011;13848;49.018;12.078;2022-11-11T13:32:51;18.17;;;10.73;;
26082;SDS011;13848;49.018;12.078;2022-11-11T13:35:21;28.27;;;16.42;;
26082;SDS011;13848;49.018;12.078;2022-11-11T13:37:53;25.02;;;13.05;;
26082;SDS011;13848;49.018;12.078;2022-11-11T13:40:25;56.22;;;29.23;;
26082;SDS011;13848;49.018;12.078;2022-11-11T13:42:58;23.98;;;13.63;;
26082;SDS011;13848;49.018;12.078;2022-11-11T13:45:25;19.25;;;11.10;;
26082;SDS011;13848;49.018;12.078;2022-11-11T13:47:53;17.08;;;10.77;;
26082;SDS011;13848;49.018;12.078;2022-11-11T13:50:22;17.83;;;11.13;;
26082;SDS011;13848;49.018;12.078;2022-11-11T13:52:52;18.63;;;11.15;;
26082;SDS011;13848;49.018;12.078;2022-11-11T13:55:22;18.38;;;11.10;;
26082;SDS011;13848;49.018;12.078;2022-11-11T13:57:56;18.88;;;10.63;;
26082;SDS011;13848;49.018;12.078;2022-11-11T14:00:25;18.08;;;10.68;;
26082;SDS011;13848;49.018;12.078;2022-11-11T14:08:50;23.48;;;11.15;;
26082;SDS011;13848;49.018;12.078;2022-11-11T14:11:26;21.05;;;11.68;;
26082;SDS011;13848;49.018;12.078;2022-11-11T14:13:55;21.90;;;12.07;;
26082;SDS011;13848;49.018;12.078;2022-11-11T14:19:29;58.83;;;29.95;;
26082;SDS011;13848;49.018;12.078;2022-11-11T14:21:56;37.35;;;18.70;;
26082;SDS011;13848;49.018;12.078;2022-11-11T14:24:24;21.00;;;11.98;;
26082;SDS011;13848;49.018;12.078;2022-11-11T14:27:00;21.20;;;11.35;;
26082;SDS011;13848;49.018;12.078;2022-11-11T14:29:29;21.13;;;11.68;;
26082;SDS011;13848;49.018;12.078;2022-11-11T14:32:01;19.65;;;11.93;;
26082;SDS011;13848;49.018;12.078;2022-11-11T14:34:47;20.65;;;11.85;;
26082;SDS011;13848;49.018;12.078;2022-11-11T14:37:38;20.75;;;11.45;;
26082;SDS011;13848;49.018;12.078;2022-11-11T14:40:23;23.27;;;11.85;;
26082;SDS011;13848;49.018;12.078;2022-11-11T14:43:00;21.45;;;11.25;;
26082;SDS011;13848;49.018;12.078;2022-11-11T14:46:00;18.90;;;11.10;;